Time;durP1;ratioP1;P1;durP2;ratioP2;P2;SDS_P1;SDS_P2;PMS_P1;PMS_P2;Temp;Humidity;BMP_temperature;BMP_pressure;BME280_temperature;BME280_humidity;BME280_pressure;Samples;Min_cycle;Max_cycle;Signal;HPM_P1;HPM_P2
2023/06/05 00:02:07;;;;;;;5.10;3.05;;;12.30;99.90;;;;;;5069822;28;20024;-41
2023/06/05 00:04:35;;;;;;;2.95;2.50;;;12.30;99.90;;;;;;5071040;28;20037;-41
2023/06/05 00:07:02;;;;;;;4.28;2.70;;;12.20;99.90;;;;;;5071096;28;20674;-40
2023/06/05 00:09:30;;;;;;;3.53;2.47;;;12.10;99.90;;;;;;5062059;28;20025;-40
2023/06/05 00:11:56;;;;;;;2.95;2.50;;;12.10;99.90;;;;;;5070971;28;20028;-40
2023/06/05 00:14:22;;;;;;;3.20;2.30;;;12.00;99.90;;;;;;5060767;28;20025;-41
2023/06/05 00:16:50;;;;;;;3.70;2.53;;;12.00;99.90;;;;;;5062649;28;20020;-41
2023/06/05 00:19:15;;;;;;;4.05;2.75;;;11.90;99.90;;;;;;5070467;28;20025;-42
2023/06/05 00:21:40;;;;;;;4.43;2.95;;;11.90;99.90;;;;;;5071087;28;20024;-40
2023/06/05 00:24:06;;;;;;;4.63;2.67;;;11.80;99.90;;;;;;5069290;28;20359;-40
2023/06/05 00:26:32;;;;;;;3.90;2.53;;;11.80;99.90;;;;;;5067562;28;20371;-42
2023/06/05 00:28:58;;;;;;;3.50;2.65;;;11.80;99.90;;;;;;5062951;28;20027;-40
2023/06/05 00:31:24;;;;;;;4.68;2.95;;;11.80;99.90;;;;;;5069237;28;20090;-40
2023/06/05 00:33:51;;;;;;;4.38;2.78;;;11.80;99.90;;;;;;5069211;28;20472;-42
2023/06/05 00:36:18;;;;;;;4.38;2.95;;;11.80;99.90;;;;;;5068951;28;20028;-41
2023/06/05 00:38:45;;;;;;;3.22;2.50;;;11.80;99.90;;;;;;5069834;28;20016;-41
2023/06/05 00:41:10;;;;;;;4.80;2.30;;;11.70;99.90;;;;;;5070200;28;20013;-40
2023/06/05 00:43:37;;;;;;;7.43;2.92;;;11.80;99.90;;;;;;5069066;28;20029;-41
2023/06/05 00:46:04;;;;;;;3.75;2.72;;;11.70;99.90;;;;;;5070180;28;20417;-42
2023/06/05 00:48:31;;;;;;;5.15;2.90;;;11.70;99.90;;;;;;5069613;28;20024;-42
2023/06/05 00:50:57;;;;;;;4.13;2.33;;;11.70;99.90;;;;;;5070354;28;20028;-41
2023/06/05 00:53:25;;;;;;;3.58;2.40;;;11.60;99.90;;;;;;5068496;28;20028;-42
2023/06/05 00:55:54;;;;;;;4.22;2.55;;;11.60;99.90;;;;;;5068539;28;20020;-45
2023/06/05 00:58:23;;;;;;;3.03;2.10;;;11.60;99.90;;;;;;5068276;28;20025;-41
2023/06/05 01:00:53;;;;;;;3.92;2.40;;;11.50;99.90;;;;;;5069699;28;20112;-41
2023/06/05 01:03:20;;;;;;;3.00;2.50;;;11.50;99.90;;;;;;5069702;28;20099;-41
2023/06/05 01:05:47;;;;;;;2.88;2.35;;;11.50;99.90;;;;;;5070012;28;20025;-41
2023/06/05 01:08:14;;;;;;;5.05;2.72;;;11.50;99.90;;;;;;5069535;28;20344;-41
2023/06/05 01:10:39;;;;;;;3.55;2.92;;;11.40;99.90;;;;;;5069932;28;20020;-43
2023/06/05 01:13:29;;;;;;;2.75;2.20;;;11.40;99.90;;;;;;5069735;28;20017;-42
2023/06/05 01:15:56;;;;;;;4.65;2.60;;;11.40;99.90;;;;;;5068728;28;20285;-42
2023/06/05 01:18:26;;;;;;;2.67;2.10;;;11.30;99.90;;;;;;5069817;28;20025;-42
2023/06/05 01:20:56;;;;;;;3.63;2.67;;;11.30;99.90;;;;;;5071504;28;20021;-45
2023/06/05 01:23:25;;;;;;;5.77;2.90;;;11.30;99.90;;;;;;5068400;28;20486;-42
2023/06/05 01:25:53;;;;;;;5.47;2.67;;;11.30;99.90;;;;;;5069623;28;20017;-42
2023/06/05 01:28:29;;;;;;;2.40;2.10;;;11.20;99.90;;;;;;5069128;28;20058;-41
2023/06/05 01:31:05;;;;;;;4.38;2.95;;;11.20;99.90;;;;;;5069057;28;20050;-41
2023/06/05 01:33:41;;;;;;;3.40;2.35;;;11.20;99.90;;;;;;5067967;28;20029;-41
2023/06/05 01:36:11;;;;;;;3.50;2.38;;;11.30;99.90;;;;;;5069079;28;20024;-41
2023/06/05 01:38:39;;;;;;;7.23;2.80;;;11.30;99.90;;;;;;5060933;28;20432;-42
2023/06/05 01:41:06;;;;;;;3.55;2.35;;;11.20;99.90;;;;;;5066681;28;20110;-40
2023/06/05 01:43:33;;;;;;;7.00;2.47;;;11.20;99.90;;;;;;5067779;28;20032;-43
2023/06/05 01:46:00;;;;;;;4.80;2.78;;;11.20;99.90;;;;;;5068936;28;20013;-40
2023/06/05 01:48:29;;;;;;;3.65;2.63;;;11.30;99.90;;;;;;5068847;28;20340;-41
2023/06/05 01:50:57;;;;;;;4.60;2.83;;;11.30;99.90;;;;;;5047963;28;20029;-41
2023/06/05 01:53:23;;;;;;;3.80;2.53;;;11.20;99.90;;;;;;5066460;28;20024;-41
2023/06/05 01:55:49;;;;;;;5.35;2.50;;;11.20;99.90;;;;;;5068751;28;20050;-42
2023/06/05 01:58:15;;;;;;;5.55;2.72;;;11.20;99.90;;;;;;5068840;28;20035;-41
2023/06/05 02:00:42;;;;;;;3.95;2.65;;;11.20;99.90;;;;;;5068812;28;20020;-41
2023/06/05 02:03:07;;;;;;;6.18;2.67;;;11.20;99.90;;;;;;5068978;28;20030;-41
2023/06/05 02:05:33;;;;;;;8.70;3.20;;;11.20;99.90;;;;;;5068814;28;20417;-42
2023/06/05 02:08:05;;;;;;;4.22;2.80;;;11.20;99.90;;;;;;5067383;28;20021;-41
2023/06/05 02:10:31;;;;;;;6.22;2.90;;;11.20;99.90;;;;;;5068254;28;20469;-41
2023/06/05 02:12:57;;;;;;;5.80;2.70;;;11.10;99.90;;;;;;5067137;28;20024;-42
2023/06/05 02:15:23;;;;;;;5.50;2.63;;;11.20;99.90;;;;;;5068875;28;20381;-41
2023/06/05 02:17:54;;;;;;;4.05;2.85;;;11.10;99.90;;;;;;5067197;28;20033;-41
2023/06/05 02:20:24;;;;;;;5.20;2.83;;;11.10;99.90;;;;;;5068122;28;20052;-41
2023/06/05 02:22:51;;;;;;;4.78;2.90;;;11.00;99.90;;;;;;5068944;28;20013;-41
2023/06/05 02:25:18;;;;;;;6.03;3.42;;;11.10;99.90;;;;;;5068475;28;20359;-41
2023/06/05 02:27:44;;;;;;;3.03;2.33;;;11.10;99.90;;;;;;5068263;28;20048;-41
2023/06/05 02:30:11;;;;;;;5.38;2.40;;;11.00;99.90;;;;;;5068073;28;20044;-41
2023/06/05 02:32:41;;;;;;;8.52;3.38;;;10.90;99.90;;;;;;5051962;28;20433;-41
2023/06/05 02:35:07;;;;;;;3.05;2.47;;;10.90;99.90;;;;;;5068873;28;20115;-41
2023/06/05 02:37:37;;;;;;;4.60;2.60;;;10.80;99.90;;;;;;5068112;28;20402;-39
2023/06/05 02:40:05;;;;;;;6.03;3.15;;;10.80;99.90;;;;;;5067717;28;20492;-40
2023/06/05 02:42:31;;;;;;;4.18;2.90;;;10.80;99.90;;;;;;5068453;28;20025;-40
2023/06/05 02:44:56;;;;;;;3.58;2.70;;;10.80;99.90;;;;;;5068450;28;20078;-41
2023/06/05 02:47:22;;;;;;;3.50;2.58;;;10.80;99.90;;;;;;5059243;28;20409;-40
2023/06/05 02:49:48;;;;;;;5.15;2.67;;;10.70;99.90;;;;;;5060207;28;20044;-41
2023/06/05 02:52:14;;;;;;;3.47;2.67;;;10.70;99.90;;;;;;5069957;28;20017;-40
2023/06/05 02:54:40;;;;;;;4.45;2.78;;;10.70;99.90;;;;;;5072679;28;20017;-41
2023/06/05 02:57:06;;;;;;;5.25;2.38;;;10.50;99.90;;;;;;5072286;28;20017;-45
2023/06/05 02:59:32;;;;;;;5.50;2.97;;;10.50;99.90;;;;;;5063774;28;20104;-43
2023/06/05 03:01:58;;;;;;;4.93;3.00;;;10.50;99.90;;;;;;5072320;28;20100;-40
2023/06/05 03:04:24;;;;;;;4.93;2.90;;;10.50;99.90;;;;;;5072015;28;20412;-40
2023/06/05 03:06:53;;;;;;;6.85;2.90;;;10.40;99.90;;;;;;5071116;28;20021;-40
2023/06/05 03:09:19;;;;;;;5.13;3.00;;;10.40;99.90;;;;;;5071558;28;20417;-40
2023/06/05 03:11:44;;;;;;;3.10;2.42;;;10.40;99.90;;;;;;5059483;28;20036;-41
2023/06/05 03:14:10;;;;;;;5.57;2.75;;;10.30;99.90;;;;;;5058099;28;20027;-40
2023/06/05 03:16:43;;;;;;;5.43;3.05;;;10.30;99.90;;;;;;5057091;28;20037;-42
2023/06/05 03:19:09;;;;;;;4.20;3.17;;;10.30;99.90;;;;;;5059318;28;20033;-41
2023/06/05 03:21:39;;;;;;;6.53;3.25;;;10.30;99.90;;;;;;5059763;28;20025;-41
2023/06/05 03:24:08;;;;;;;5.43;3.27;;;10.30;99.90;;;;;;5063574;28;20682;-40
2023/06/05 03:26:35;;;;;;;4.68;3.00;;;10.40;99.90;;;;;;5069962;28;20029;-42
2023/06/05 03:29:01;;;;;;;4.35;3.20;;;10.40;99.90;;;;;;5067726;28;20028;-40
2023/06/05 03:31:30;;;;;;;4.60;3.63;;;10.40;99.90;;;;;;5061905;28;20085;-41
2023/06/05 03:33:58;;;;;;;4.93;3.42;;;10.40;99.90;;;;;;5071836;28;20217;-40
2023/06/05 03:36:23;;;;;;;6.43;2.92;;;10.40;99.90;;;;;;5070046;28;20393;-44
2023/06/05 03:38:50;;;;;;;7.70;3.72;;;10.50;99.90;;;;;;5071100;28;20028;-40
2023/06/05 03:41:16;;;;;;;5.25;3.25;;;10.50;99.90;;;;;;5071164;28;20224;-40
2023/06/05 03:43:42;;;;;;;5.03;3.00;;;10.60;99.90;;;;;;5069772;28;20544;-42
2023/06/05 03:46:10;;;;;;;5.03;3.30;;;10.60;99.90;;;;;;5070091;28;20444;-40
2023/06/05 03:48:36;;;;;;;5.40;2.97;;;10.60;99.90;;;;;;5069484;28;20054;-40
2023/06/05 03:51:01;;;;;;;4.20;2.60;;;10.70;99.90;;;;;;5071334;28;20021;-40
2023/06/05 03:53:29;;;;;;;2.90;2.60;;;10.60;99.90;;;;;;5071405;28;20020;-41
2023/06/05 03:55:56;;;;;;;5.10;3.00;;;10.60;99.90;;;;;;5065180;28;20044;-40
2023/06/05 03:58:26;;;;;;;4.75;3.05;;;10.60;99.90;;;;;;5069166;28;20029;-41
2023/06/05 04:00:53;;;;;;;6.55;3.20;;;10.70;99.90;;;;;;5069327;28;20056;-40
2023/06/05 04:03:20;;;;;;;5.22;3.15;;;10.80;99.90;;;;;;5070230;28;20025;-40
2023/06/05 04:05:46;;;;;;;6.88;3.63;;;10.80;99.90;;;;;;5070765;28;20020;-41
2023/06/05 04:08:11;;;;;;;5.05;3.70;;;10.80;99.90;;;;;;5071077;28;20367;-39
2023/06/05 04:10:38;;;;;;;7.20;3.35;;;10.80;99.90;;;;;;5068857;28;20103;-41
2023/06/05 04:13:04;;;;;;;8.82;4.05;;;10.80;99.90;;;;;;5065126;28;20095;-40
2023/06/05 04:15:36;;;;;;;7.93;3.63;;;10.80;99.90;;;;;;5070888;28;20052;-42
2023/06/05 04:18:02;;;;;;;6.38;3.50;;;10.90;99.90;;;;;;5070697;28;20497;-40
2023/06/05 04:20:31;;;;;;;6.30;3.72;;;10.90;99.90;;;;;;5070041;28;20060;-40
2023/06/05 04:22:56;;;;;;;9.18;3.60;;;11.00;99.90;;;;;;5062554;28;20031;-41
2023/06/05 04:25:28;;;;;;;5.95;3.42;;;11.00;99.90;;;;;;5070886;28;20092;-41
2023/06/05 04:27:55;;;;;;;6.50;3.30;;;11.00;99.90;;;;;;5070585;28;20485;-41
2023/06/05 04:30:21;;;;;;;5.93;3.65;;;11.00;99.90;;;;;;5070071;28;20028;-39
2023/06/05 04:32:54;;;;;;;5.90;3.78;;;11.00;99.90;;;;;;5064989;28;20016;-40
2023/06/05 04:35:21;;;;;;;8.10;3.95;;;11.00;99.90;;;;;;5060667;28;20064;-40
2023/06/05 04:37:46;;;;;;;9.18;3.95;;;11.10;99.90;;;;;;5059268;28;20414;-41
2023/06/05 04:40:12;;;;;;;9.10;4.00;;;11.20;99.90;;;;;;5058529;28;20025;-41
2023/06/05 04:42:38;;;;;;;4.78;3.15;;;11.20;99.90;;;;;;5058960;28;20079;-41
2023/06/05 04:45:06;;;;;;;10.82;4.35;;;11.20;99.90;;;;;;5063093;28;20435;-41
2023/06/05 04:47:32;;;;;;;5.05;3.60;;;11.40;99.90;;;;;;5070063;28;20021;-42
2023/06/05 04:49:59;;;;;;;6.32;3.40;;;11.30;99.90;;;;;;5068254;28;20499;-41
2023/06/05 04:52:29;;;;;;;6.70;3.90;;;11.40;99.90;;;;;;5068464;28;20501;-41
2023/06/05 04:54:55;;;;;;;12.60;4.35;;;11.50;99.90;;;;;;5069997;28;20091;-41
2023/06/05 04:57:21;;;;;;;4.95;3.75;;;11.50;99.90;;;;;;5068741;28;20343;-42
2023/06/05 04:59:48;;;;;;;9.35;4.25;;;11.50;99.90;;;;;;5068995;28;20031;-41
2023/06/05 05:02:13;;;;;;;10.25;4.03;;;11.60;99.90;;;;;;5069719;28;20101;-43
2023/06/05 05:04:39;;;;;;;5.85;3.28;;;11.60;99.90;;;;;;5069696;28;20078;-41
2023/06/05 05:07:05;;;;;;;6.65;3.75;;;11.70;99.90;;;;;;5049930;28;20616;-41
2023/06/05 05:09:31;;;;;;;10.85;4.93;;;11.80;99.90;;;;;;5068569;28;20367;-41
2023/06/05 05:11:57;;;;;;;5.20;3.90;;;11.90;99.90;;;;;;5063275;28;20078;-42
2023/06/05 05:14:27;;;;;;;9.85;4.25;;;11.90;99.90;;;;;;5057670;28;20117;-41
2023/06/05 05:16:53;;;;;;;6.07;4.13;;;12.00;99.90;;;;;;5056280;28;20437;-41
2023/06/05 05:19:19;;;;;;;8.45;3.88;;;12.10;99.90;;;;;;5057743;28;20028;-42
2023/06/05 05:21:47;;;;;;;5.35;3.28;;;12.10;99.90;;;;;;5059061;28;21761;-42
2023/06/05 05:24:12;;;;;;;6.60;3.70;;;12.10;99.90;;;;;;5058561;28;20013;-41
2023/06/05 05:26:39;;;;;;;7.10;4.10;;;12.20;99.90;;;;;;5056426;28;20032;-42
2023/06/05 05:29:06;;;;;;;5.90;3.67;;;12.20;99.90;;;;;;5056927;28;20497;-42
2023/06/05 05:31:31;;;;;;;6.13;4.10;;;12.20;99.90;;;;;;5059438;28;20021;-42
2023/06/05 05:33:58;;;;;;;5.32;3.45;;;12.30;99.90;;;;;;5060401;28;20351;-43
2023/06/05 05:36:24;;;;;;;6.85;3.38;;;12.40;99.90;;;;;;5058447;28;20115;-42
2023/06/05 05:38:52;;;;;;;8.77;3.97;;;12.40;99.90;;;;;;5067610;28;20482;-42
2023/06/05 05:41:18;;;;;;;17.42;4.28;;;12.50;99.90;;;;;;5062163;28;20035;-43
2023/06/05 05:43:44;;;;;;;8.95;3.90;;;12.60;99.90;;;;;;5057197;28;20016;-42
2023/06/05 05:46:10;;;;;;;5.78;3.17;;;12.70;99.90;;;;;;5058271;28;20483;-43
2023/06/05 05:48:40;;;;;;;6.25;3.13;;;12.70;99.90;;;;;;5057417;28;20057;-42
2023/06/05 05:51:07;;;;;;;8.07;4.07;;;12.80;99.90;;;;;;5058120;28;20025;-42
2023/06/05 05:53:33;;;;;;;5.70;3.40;;;12.80;99.90;;;;;;5059239;28;20504;-43
2023/06/05 05:56:00;;;;;;;6.70;3.40;;;12.80;99.90;;;;;;5056239;28;20063;-43
2023/06/05 05:58:31;;;;;;;7.03;3.53;;;12.90;99.90;;;;;;5062578;28;20197;-43
2023/06/05 06:01:00;;;;;;;7.10;3.63;;;13.00;99.90;;;;;;5060755;28;20474;-42
2023/06/05 06:03:36;;;;;;;15.55;7.05;;;13.10;99.90;;;;;;5068517;28;20505;-42
2023/06/05 06:06:06;;;;;;;17.10;10.70;;;13.10;99.90;;;;;;5068203;28;20020;-43
2023/06/05 06:08:33;;;;;;;16.33;12.35;;;13.20;99.90;;;;;;5068441;28;20025;-43
2023/06/05 06:10:59;;;;;;;12.23;7.55;;;13.30;99.90;;;;;;5067206;28;20460;-43
2023/06/05 06:13:33;;;;;;;10.32;5.97;;;13.40;99.90;;;;;;5066868;28;20020;-42
2023/06/05 06:15:58;;;;;;;5.68;3.85;;;13.40;99.90;;;;;;5068207;28;20074;-43
2023/06/05 06:18:27;;;;;;;5.57;3.25;;;13.50;99.90;;;;;;5067785;28;20032;-42
2023/06/05 06:20:53;;;;;;;7.65;3.80;;;13.60;99.90;;;;;;5067714;28;20028;-42
2023/06/05 06:23:21;;;;;;;6.25;3.13;;;13.70;99.90;;;;;;5068055;28;20437;-45
2023/06/05 06:25:51;;;;;;;5.80;3.42;;;13.80;99.90;;;;;;5067873;28;20126;-42
2023/06/05 06:28:17;;;;;;;5.03;3.03;;;13.90;99.90;;;;;;5060903;28;20066;-41
2023/06/05 06:30:43;;;;;;;5.13;3.17;;;14.00;99.90;;;;;;5063416;28;20017;-42
2023/06/05 06:33:09;;;;;;;9.27;3.63;;;14.00;99.90;;;;;;5055230;28;20494;-43
2023/06/05 06:35:36;;;;;;;10.23;3.50;;;14.20;99.90;;;;;;5057302;28;20030;-43
2023/06/05 06:38:03;;;;;;;4.68;2.90;;;14.30;99.90;;;;;;5054488;28;20399;-42
2023/06/05 06:40:35;;;;;;;4.95;3.20;;;14.40;99.90;;;;;;5046875;28;20688;-42
2023/06/05 06:43:00;;;;;;;9.88;3.53;;;14.40;99.90;;;;;;5061125;28;20107;-42
2023/06/05 06:45:30;;;;;;;4.97;3.30;;;14.60;99.90;;;;;;5068801;28;20529;-42
2023/06/05 06:47:56;;;;;;;6.03;2.83;;;14.80;99.90;;;;;;5068221;28;20651;-42
2023/06/05 06:50:22;;;;;;;4.22;3.33;;;14.90;99.90;;;;;;5067799;28;20096;-42
2023/06/05 06:52:47;;;;;;;8.93;2.45;;;15.00;99.90;;;;;;5066319;28;20024;-42
2023/06/05 06:55:14;;;;;;;9.25;3.53;;;15.10;99.90;;;;;;5063234;28;20012;-42
2023/06/05 06:57:40;;;;;;;4.85;3.05;;;15.30;99.90;;;;;;5051868;28;20123;-42
2023/06/05 07:00:09;;;;;;;7.47;3.03;;;15.40;99.90;;;;;;5061188;28;20021;-43
2023/06/05 07:02:37;;;;;;;4.97;2.90;;;15.40;99.90;;;;;;5064940;28;20071;-42
2023/06/05 07:05:04;;;;;;;4.07;2.60;;;15.60;99.90;;;;;;5065712;28;20109;-42
2023/06/05 07:07:29;;;;;;;4.25;3.17;;;15.70;99.90;;;;;;5057357;28;20009;-42
2023/06/05 07:09:57;;;;;;;6.28;2.60;;;15.80;99.90;;;;;;5067728;28;20017;-42
2023/06/05 07:12:23;;;;;;;8.27;3.20;;;15.90;99.90;;;;;;5058431;28;20450;-43
2023/06/05 07:14:49;;;;;;;6.43;2.90;;;16.10;99.90;;;;;;5068359;28;20094;-43
2023/06/05 07:17:14;;;;;;;3.95;2.35;;;16.20;99.90;;;;;;5061945;28;20025;-43
2023/06/05 07:19:40;;;;;;;3.90;2.63;;;16.30;99.90;;;;;;5055433;28;20055;-42
2023/06/05 07:22:07;;;;;;;3.25;2.72;;;16.50;99.90;;;;;;5059755;28;20056;-42
2023/06/05 07:24:41;;;;;;;6.35;2.58;;;16.60;99.90;;;;;;5068000;28;20070;-42
2023/06/05 07:27:08;;;;;;;3.53;2.28;;;16.70;99.90;;;;;;5067905;28;20390;-43
2023/06/05 07:29:33;;;;;;;4.75;2.55;;;16.80;99.90;;;;;;5067269;28;20091;-43
2023/06/05 07:31:59;;;;;;;433.67;303.67;;;17.00;99.90;;;;;;5067830;28;20420;-42
2023/06/05 07:34:26;;;;;;;32.58;21.38;;;17.10;99.90;;;;;;5067939;28;20016;-42
2023/06/05 07:36:56;;;;;;;6.43;4.68;;;17.30;99.90;;;;;;5067533;28;20028;-42
2023/06/05 07:39:24;;;;;;;8.07;3.97;;;17.40;99.60;;;;;;5067689;28;20035;-42
2023/06/05 07:41:52;;;;;;;5.32;2.53;;;17.60;99.70;;;;;;5070824;28;20029;-43
2023/06/05 07:44:19;;;;;;;2.83;2.28;;;17.80;98.90;;;;;;5070205;28;20013;-42
2023/06/05 07:46:46;;;;;;;4.47;3.10;;;18.00;97.50;;;;;;5069860;28;20016;-42
2023/06/05 07:49:12;;;;;;;6.40;2.83;;;18.20;97.10;;;;;;5070040;28;20044;-42
2023/06/05 07:51:42;;;;;;;5.32;2.95;;;18.40;96.60;;;;;;5068739;28;20176;-42
2023/06/05 07:54:10;;;;;;;7.35;2.55;;;18.70;95.90;;;;;;5066889;28;20020;-42
2023/06/05 07:56:36;;;;;;;3.35;2.67;;;18.80;95.00;;;;;;5062015;28;20494;-42
2023/06/05 07:59:03;;;;;;;6.18;2.40;;;19.10;94.70;;;;;;5061327;28;20417;-49
2023/06/05 08:01:36;;;;;;;7.45;2.90;;;19.30;93.40;;;;;;5053665;28;20032;-49
2023/06/05 08:04:02;;;;;;;5.22;2.67;;;19.50;92.50;;;;;;5070068;28;20028;-46
2023/06/05 08:06:27;;;;;;;5.10;2.92;;;19.90;92.40;;;;;;5071137;28;20024;-47
2023/06/05 08:08:53;;;;;;;2.15;1.75;;;20.20;92.00;;;;;;5071037;28;20020;-47
2023/06/05 08:11:21;;;;;;;5.55;2.03;;;20.60;90.50;;;;;;5069855;28;20509;-47
2023/06/05 08:13:47;;;;;;;5.40;2.38;;;21.30;87.50;;;;;;5071176;28;20058;-49
2023/06/05 08:16:15;;;;;;;7.03;2.25;;;22.50;83.60;;;;;;5069803;28;20056;-49
2023/06/05 08:18:41;;;;;;;5.07;2.33;;;23.80;78.00;;;;;;5070245;28;20025;-50
2023/06/05 08:21:07;;;;;;;4.03;2.47;;;24.90;70.90;;;;;;5069194;28;20024;-48
2023/06/05 08:23:32;;;;;;;6.10;1.95;;;26.20;70.00;;;;;;5069486;28;20193;-48
2023/06/05 08:25:58;;;;;;;5.18;2.00;;;27.10;64.10;;;;;;5069150;28;20066;-48
2023/06/05 08:28:24;;;;;;;3.78;1.80;;;27.40;61.30;;;;;;5071163;28;20048;-50
2023/06/05 08:30:51;;;;;;;2.90;2.03;;;28.20;58.80;;;;;;5069850;28;20042;-50
2023/06/05 08:33:18;;;;;;;7.10;2.30;;;29.10;55.90;;;;;;5070684;28;20009;-50
2023/06/05 08:35:44;;;;;;;6.97;1.73;;;29.50;55.20;;;;;;5069541;28;20021;-50
2023/06/05 08:38:09;;;;;;;3.10;1.98;;;29.90;56.10;;;;;;5070584;28;20520;-51
2023/06/05 08:40:38;;;;;;;4.65;1.90;;;30.50;52.70;;;;;;5069733;28;20056;-50
2023/06/05 08:43:04;;;;;;;3.45;2.03;;;31.10;51.30;;;;;;5068585;28;20532;-48
2023/06/05 08:45:33;;;;;;;3.75;1.83;;;31.90;49.90;;;;;;5069229;28;20020;-51
2023/06/05 08:48:03;;;;;;;1.95;1.77;;;32.50;47.70;;;;;;5069329;28;20016;-51
2023/06/05 08:50:32;;;;;;;1.70;1.60;;;32.60;46.50;;;;;;5067842;28;20066;-49
2023/06/05 08:53:01;;;;;;;5.82;1.40;;;33.00;45.90;;;;;;5069504;28;20028;-48
2023/06/05 08:55:27;;;;;;;3.30;1.80;;;33.50;45.40;;;;;;5070158;28;20508;-48
2023/06/05 08:57:53;;;;;;;2.90;1.75;;;33.30;44.80;;;;;;5068898;28;20033;-51
2023/06/05 09:00:20;;;;;;;5.35;1.65;;;34.10;44.00;;;;;;5058182;28;20126;-51
2023/06/05 09:02:47;;;;;;;1.70;1.60;;;34.60;44.10;;;;;;5065545;28;20116;-51
2023/06/05 09:05:17;;;;;;;3.03;1.55;;;34.50;43.20;;;;;;5069307;28;20611;-51
2023/06/05 09:07:43;;;;;;;3.03;1.73;;;34.90;41.40;;;;;;5069112;28;20032;-51
2023/06/05 09:10:26;;;;;;;3.28;1.92;;;35.10;41.50;;;;;;5069071;28;20024;-51
2023/06/05 09:12:54;;;;;;;2.92;1.33;;;35.50;41.30;;;;;;5063293;28;20020;-51
2023/06/05 09:15:27;;;;;;;3.30;1.70;;;35.90;40.30;;;;;;5067410;28;20612;-50
2023/06/05 09:18:08;;;;;;;4.25;1.40;;;37.00;39.40;;;;;;5065285;28;20048;-51
2023/06/05 09:20:34;;;;;;;2.25;1.35;;;36.00;39.80;;;;;;5067210;28;20031;-51
2023/06/05 09:23:04;;;;;;;1.98;1.70;;;36.20;40.60;;;;;;5068501;28;20114;-51
2023/06/05 09:25:48;;;;;;;3.45;1.45;;;36.50;40.40;;;;;;5067218;28;20434;-51
2023/06/05 09:28:17;;;;;;;1.98;1.73;;;37.90;37.90;;;;;;5068522;28;20044;-51
2023/06/05 09:30:57;;;;;;;3.40;2.00;;;37.30;38.10;;;;;;5066841;28;20028;-48
2023/06/05 09:33:24;;;;;;;2.97;1.38;;;37.10;37.30;;;;;;5068738;28;20114;-50
2023/06/05 09:36:10;;;;;;;2.70;1.40;;;36.90;38.50;;;;;;5068580;28;20029;-50
2023/06/05 09:38:38;;;;;;;2.10;1.67;;;37.20;38.50;;;;;;5067793;28;20024;-51
2023/06/05 09:41:14;;;;;;;3.13;1.40;;;38.30;37.60;;;;;;5059271;28;20033;-51
2023/06/05 09:43:40;;;;;;;4.57;1.70;;;38.10;36.40;;;;;;5068545;28;20440;-50
2023/06/05 09:46:10;;;;;;;4.07;1.60;;;37.70;36.70;;;;;;5068621;28;20074;-49
2023/06/05 09:48:36;;;;;;;4.90;1.60;;;37.10;37.20;;;;;;5068250;28;20029;-51
2023/06/05 09:51:11;;;;;;;2.40;1.30;;;37.70;36.50;;;;;;5068348;28;20180;-48
2023/06/05 09:53:49;;;;;;;1.98;1.45;;;38.10;36.00;;;;;;5068635;28;20460;-52
2023/06/05 09:56:17;;;;;;;2.63;1.47;;;38.60;35.60;;;;;;5062003;28;20051;-51
2023/06/05 09:58:51;;;;;;;2.60;1.38;;;38.10;34.80;;;;;;5066812;28;20032;-51
2023/06/05 10:01:22;;;;;;;3.25;1.40;;;38.10;35.70;;;;;;5057072;28;20032;-48
2023/06/05 10:03:58;;;;;;;1.90;1.55;;;38.60;34.70;;;;;;5055407;28;20021;-48
2023/06/05 10:06:28;;;;;;;1.30;1.08;;;38.60;33.30;;;;;;5058447;28;20360;-48
2023/06/05 10:08:55;;;;;;;3.08;1.40;;;38.90;33.90;;;;;;5056222;28;20025;-48
2023/06/05 10:11:22;;;;;;;1.52;1.38;;;38.90;33.80;;;;;;5060849;28;20025;-48
2023/06/05 10:13:49;;;;;;;1.98;1.38;;;39.00;32.00;;;;;;5056205;28;20029;-48
2023/06/05 10:16:16;;;;;;;3.33;1.38;;;39.70;32.30;;;;;;5057644;28;20070;-48
2023/06/05 10:18:41;;;;;;;3.30;1.58;;;39.50;34.20;;;;;;5061643;28;20094;-51
2023/06/05 10:21:08;;;;;;;3.28;1.60;;;39.80;33.50;;;;;;5061514;28;20060;-51
2023/06/05 10:23:35;;;;;;;2.35;1.60;;;39.40;32.60;;;;;;5061090;28;20404;-51
2023/06/05 10:26:10;;;;;;;2.40;1.50;;;38.90;33.20;;;;;;5062268;28;20027;-51
2023/06/05 10:28:51;;;;;;;1.77;1.40;;;39.40;33.40;;;;;;5055279;28;20025;-51
2023/06/05 10:31:28;;;;;;;2.95;1.40;;;38.40;33.10;;;;;;5058807;28;20032;-52
2023/06/05 10:34:27;;;;;;;3.65;1.50;;;38.40;34.10;;;;;;5058758;28;20024;-48
2023/06/05 10:37:35;;;;;;;2.08;1.63;;;38.80;33.30;;;;;;5026960;28;20203;-51
2023/06/05 10:40:01;;;;;;;2.42;1.70;;;39.00;33.20;;;;;;5057407;28;20029;-50
2023/06/05 10:42:28;;;;;;;1.90;1.40;;;39.40;33.20;;;;;;5059967;28;20023;-51
2023/06/05 10:44:55;;;;;;;2.92;1.73;;;39.30;33.60;;;;;;5063681;28;20028;-51
2023/06/05 10:47:33;;;;;;;3.72;1.75;;;39.60;33.60;;;;;;5060900;28;20104;-51
2023/06/05 10:50:34;;;;;;;10.02;8.88;;;39.70;32.10;;;;;;5059849;28;20033;-52
2023/06/05 10:53:00;;;;;;;5.18;4.45;;;39.40;33.70;;;;;;5021329;28;20061;-51
2023/06/05 10:55:27;;;;;;;1.50;1.40;;;39.30;33.90;;;;;;5058867;28;20518;-48
2023/06/05 10:58:02;;;;;;;2.40;1.40;;;39.50;33.30;;;;;;5067720;28;20033;-50
2023/06/05 11:00:29;;;;;;;1.98;1.77;;;40.00;31.80;;;;;;5066098;28;20032;-51
2023/06/05 11:02:55;;;;;;;1.63;1.50;;;40.40;31.90;;;;;;5064018;28;20071;-50
2023/06/05 11:05:21;;;;;;;2.80;1.42;;;40.30;30.90;;;;;;5057868;28;20117;-51
2023/06/05 11:07:47;;;;;;;2.63;1.50;;;40.40;32.00;;;;;;5056956;28;20256;-50
2023/06/05 11:10:21;;;;;;;1.90;1.50;;;39.80;31.80;;;;;;5060728;28;20041;-51
2023/06/05 11:12:46;;;;;;;3.83;1.52;;;39.90;31.10;;;;;;5063767;28;20553;-51
2023/06/05 11:15:13;;;;;;;2.72;1.58;;;39.50;32.20;;;;;;5064127;28;20151;-52
2023/06/05 11:17:44;;;;;;;3.47;1.40;;;39.10;33.40;;;;;;5062966;28;20368;-52
2023/06/05 11:20:25;;;;;;;3.42;1.50;;;39.10;32.30;;;;;;5063211;28;20408;-51
2023/06/05 11:22:54;;;;;;;2.17;1.65;;;39.40;32.60;;;;;;5065469;28;20477;-51
2023/06/05 11:25:26;;;;;;;2.33;1.80;;;39.50;32.90;;;;;;5059608;28;20045;-52
2023/06/05 11:27:53;;;;;;;5.35;1.58;;;39.50;32.40;;;;;;5064075;28;20063;-51
2023/06/05 11:30:21;;;;;;;1.65;1.52;;;39.30;31.40;;;;;;5063256;28;20095;-51
2023/06/05 11:32:47;;;;;;;3.03;1.70;;;40.00;31.30;;;;;;5061021;28;20082;-51
2023/06/05 11:35:14;;;;;;;2.97;1.70;;;39.60;30.80;;;;;;5063641;28;20055;-52
2023/06/05 11:37:40;;;;;;;2.50;1.90;;;39.40;31.20;;;;;;5071299;28;20020;-49
2023/06/05 11:40:11;;;;;;;14.63;13.18;;;39.30;31.70;;;;;;5069248;28;20021;-52
2023/06/05 11:42:39;;;;;;;6.53;3.25;;;38.30;31.40;;;;;;5071564;28;20025;-51
2023/06/05 11:45:12;;;;;;;2.65;1.73;;;36.80;31.80;;;;;;5056009;28;20025;-49
2023/06/05 11:47:39;;;;;;;2.30;1.67;;;36.30;33.80;;;;;;5064192;28;20060;-51
2023/06/05 11:50:30;;;;;;;2.78;1.80;;;37.20;33.70;;;;;;5063224;28;20028;-48
2023/06/05 11:53:07;;;;;;;2.75;1.90;;;37.50;33.60;;;;;;5063900;28;20045;-49
2023/06/05 11:56:05;;;;;;;2.28;1.67;;;38.00;33.20;;;;;;5064663;28;20020;-49
2023/06/05 11:58:29;;;;;;;5.80;2.63;;;38.20;32.00;;;;;;5063455;28;20497;-51
2023/06/05 12:01:25;;;;;;;3.55;1.95;;;36.70;33.30;;;;;;5063896;28;20127;-51
2023/06/05 12:04:07;;;;;;;2.88;1.60;;;35.80;34.00;;;;;;5065870;28;20017;-48
2023/06/05 12:06:41;;;;;;;3.97;2.00;;;35.00;36.20;;;;;;5065071;28;20081;-48
2023/06/05 12:09:11;;;;;;;3.15;1.60;;;34.30;36.10;;;;;;5069455;28;20218;-49
2023/06/05 12:11:38;;;;;;;6.13;2.38;;;33.50;35.90;;;;;;5071073;28;20460;-51
2023/06/05 12:14:03;;;;;;;6.53;2.03;;;33.30;37.70;;;;;;5071118;28;20044;-50
2023/06/05 12:16:34;;;;;;;3.70;1.90;;;32.90;37.30;;;;;;5070885;28;20062;-50
2023/06/05 12:19:01;;;;;;;3.55;2.22;;;32.70;37.80;;;;;;5070301;28;20043;-51
2023/06/05 12:21:27;;;;;;;58.20;52.38;;;32.50;37.60;;;;;;5071110;28;20452;-51
2023/06/05 12:24:06;;;;;;;25.98;17.80;;;32.50;37.50;;;;;;5070983;28;20093;-48
2023/06/05 12:26:53;;;;;;;5.32;4.03;;;32.20;37.80;;;;;;5071040;28;20012;-48
2023/06/05 12:29:22;;;;;;;7.28;2.13;;;32.00;40.10;;;;;;5069406;28;20031;-49
2023/06/05 12:31:48;;;;;;;3.60;2.33;;;32.00;38.70;;;;;;5069728;28;20572;-51
2023/06/05 12:34:15;;;;;;;5.97;2.20;;;31.80;39.00;;;;;;5069868;28;20107;-48
2023/06/05 12:36:42;;;;;;;5.03;2.35;;;31.70;39.00;;;;;;5071168;28;20167;-49
2023/06/05 12:39:10;;;;;;;4.22;2.10;;;31.70;39.50;;;;;;5070642;28;20264;-49
2023/06/05 12:41:36;;;;;;;4.30;2.10;;;31.80;40.40;;;;;;5069233;28;20036;-47
2023/06/05 12:44:07;;;;;;;6.97;2.13;;;31.80;39.30;;;;;;5068501;28;20013;-51
2023/06/05 12:46:33;;;;;;;2.60;2.00;;;31.80;39.50;;;;;;5062261;28;20112;-50
2023/06/05 12:49:00;;;;;;;3.05;2.10;;;31.30;38.60;;;;;;5064057;28;20029;-47
2023/06/05 12:51:27;;;;;;;2.08;1.70;;;31.10;40.50;;;;;;5066710;28;20024;-47
2023/06/05 12:53:54;;;;;;;3.47;2.20;;;30.40;39.50;;;;;;5059732;28;20420;-49